createdAt,value
2022-07-25T00:01:13.369Z,9.90
2022-07-25T00:03:42.258Z,10.00
2022-07-25T00:06:13.363Z,10.20
2022-07-25T00:08:45.722Z,10.07
2022-07-25T00:11:14.784Z,10.70
2022-07-25T00:13:43.134Z,11.03
2022-07-25T00:16:11.044Z,11.13
2022-07-25T00:18:38.879Z,11.73
2022-07-25T00:21:07.366Z,11.10
2022-07-25T00:23:35.158Z,11.60
2022-07-25T00:26:02.936Z,10.77
2022-07-25T00:28:32.474Z,11.70
2022-07-25T00:31:00.348Z,11.90
2022-07-25T00:33:28.221Z,11.80
2022-07-25T00:35:56.403Z,12.37
2022-07-25T00:38:39.041Z,12.40
2022-07-25T00:41:07.555Z,12.57
2022-07-25T00:43:36.769Z,11.77
2022-07-25T00:46:04.655Z,12.17
2022-07-25T00:48:33.453Z,10.60
2022-07-25T00:51:01.377Z,10.27
2022-07-25T00:53:29.722Z,10.47
2022-07-25T00:55:58.969Z,11.90
2022-07-25T00:58:26.846Z,11.30
2022-07-25T01:00:56.506Z,10.93
2022-07-25T01:03:24.422Z,12.07
2022-07-25T01:05:53.851Z,10.87
2022-07-25T01:08:23.505Z,10.47
2022-07-25T01:10:51.371Z,11.20
2022-07-25T01:13:19.578Z,11.80
2022-07-25T01:15:48.967Z,11.60
2022-07-25T01:18:18.405Z,12.13
2022-07-25T01:20:48.310Z,12.10
2022-07-25T01:23:16.098Z,13.03
2022-07-25T01:25:44.057Z,12.93
2022-07-25T01:28:12.191Z,12.20
2022-07-25T01:30:40.129Z,11.97
2022-07-25T01:33:07.942Z,12.20
2022-07-25T01:35:40.179Z,12.77
2022-07-25T01:38:12.277Z,12.27
2022-07-25T01:40:40.891Z,11.50
2022-07-25T01:43:09.410Z,11.83
2022-07-25T01:45:37.303Z,13.87
2022-07-25T01:48:05.999Z,12.50
2022-07-25T01:50:33.828Z,11.77
2022-07-25T01:53:01.564Z,12.30
2022-07-25T01:55:31.119Z,13.00
2022-07-25T01:58:00.260Z,11.63
2022-07-25T02:00:28.365Z,11.67
2022-07-25T02:03:10.397Z,11.87
2022-07-25T02:05:38.304Z,12.17
2022-07-25T02:08:06.541Z,12.30
2022-07-25T02:10:36.074Z,11.77
2022-07-25T02:13:05.098Z,12.30
2022-07-25T02:15:32.910Z,13.23
2022-07-25T02:18:01.228Z,13.37
2022-07-25T02:20:29.116Z,11.20
2022-07-25T02:22:56.791Z,10.53
2022-07-25T02:25:25.088Z,11.93
2022-07-25T02:27:54.195Z,11.40
2022-07-25T02:30:22.017Z,11.83
2022-07-25T02:32:50.199Z,11.50
2022-07-25T02:35:17.957Z,11.10
2022-07-25T02:37:45.782Z,10.60
2022-07-25T02:40:14.219Z,11.43
2022-07-25T02:42:42.685Z,11.53
2022-07-25T02:45:12.307Z,11.67
2022-07-25T02:47:40.061Z,11.20
2022-07-25T02:50:09.581Z,11.30
2022-07-25T02:52:42.675Z,11.93
2022-07-25T02:55:11.840Z,10.47
2022-07-25T02:57:39.679Z,10.30
2022-07-25T03:00:09.021Z,11.50
2022-07-25T03:02:38.558Z,11.23
2022-07-25T03:05:08.207Z,12.53
2022-07-25T03:07:36.015Z,12.33
2022-07-25T03:10:11.189Z,11.93
2022-07-25T03:12:40.070Z,9.93
2022-07-25T03:15:10.130Z,11.43
2022-07-25T03:17:40.299Z,11.20
2022-07-25T03:20:10.471Z,12.30
2022-07-25T03:22:38.878Z,11.60
2022-07-25T03:25:15.891Z,12.30
2022-07-25T03:27:50.001Z,11.50
2022-07-25T03:30:18.656Z,11.67
2022-07-25T03:32:48.207Z,11.33
2022-07-25T03:35:17.001Z,10.90
2022-07-25T03:37:45.696Z,10.93
2022-07-25T03:40:14.887Z,11.90
2022-07-25T03:42:44.203Z,11.03
2022-07-25T03:45:13.010Z,11.27
2022-07-25T03:47:41.034Z,10.57
2022-07-25T03:50:11.702Z,12.23
2022-07-25T03:52:40.671Z,11.37
2022-07-25T03:55:10.725Z,11.50
2022-07-25T03:57:39.073Z,10.90
2022-07-25T04:00:10.650Z,11.00
2022-07-25T04:02:38.648Z,9.93
2022-07-25T04:05:08.003Z,11.60
2022-07-25T04:07:38.349Z,11.60
2022-07-25T04:10:08.287Z,10.03
2022-07-25T04:12:36.339Z,10.30
2022-07-25T04:15:05.382Z,11.20
2022-07-25T04:17:33.432Z,9.50
2022-07-25T04:20:01.771Z,9.70
2022-07-25T04:22:29.767Z,9.57
2022-07-25T04:24:59.164Z,9.63
2022-07-25T04:27:27.127Z,9.17
2022-07-25T04:29:55.108Z,9.20
2022-07-25T04:32:23.795Z,10.00
2022-07-25T04:34:52.646Z,9.50
2022-07-25T04:37:20.960Z,8.50
2022-07-25T04:39:48.945Z,9.57
2022-07-25T04:42:18.667Z,7.97
2022-07-25T04:44:46.680Z,9.03
2022-07-25T04:47:14.993Z,8.43
2022-07-25T04:49:42.996Z,8.60
2022-07-25T04:52:11.005Z,7.83
2022-07-25T04:54:38.976Z,8.67
2022-07-25T04:57:07.360Z,8.00
2022-07-25T04:59:36.685Z,7.90
2022-07-25T05:02:05.354Z,8.20
2022-07-25T05:04:33.423Z,8.20
2022-07-25T05:07:03.968Z,8.63
2022-07-25T05:09:32.199Z,8.63
2022-07-25T05:12:00.681Z,8.50
2022-07-25T05:14:28.610Z,8.07
2022-07-25T05:16:58.433Z,8.37
2022-07-25T05:19:26.438Z,8.50
2022-07-25T05:21:54.977Z,7.83
2022-07-25T05:24:28.974Z,8.20
2022-07-25T05:26:57.625Z,7.60
2022-07-25T05:29:34.932Z,7.30
2022-07-25T05:32:05.127Z,7.93
2022-07-25T05:34:40.691Z,8.00
2022-07-25T05:37:14.411Z,7.90
2022-07-25T05:39:45.874Z,8.03
2022-07-25T05:42:14.277Z,7.90
2022-07-25T05:44:44.589Z,7.57
2022-07-25T05:47:21.088Z,7.43
2022-07-25T05:49:49.118Z,7.47
2022-07-25T05:52:17.629Z,8.03
2022-07-25T05:54:57.365Z,7.40
2022-07-25T05:57:25.909Z,7.63
2022-07-25T05:59:54.403Z,7.13
2022-07-25T06:02:26.625Z,7.00
2022-07-25T06:04:54.731Z,7.40
2022-07-25T06:07:23.128Z,8.00
2022-07-25T06:09:51.190Z,6.90
2022-07-25T06:12:20.235Z,7.47
2022-07-25T06:14:53.214Z,7.37
2022-07-25T06:17:21.943Z,7.30
2022-07-25T06:19:51.316Z,7.30
2022-07-25T06:22:20.274Z,7.63
2022-07-25T06:24:48.534Z,7.00
2022-07-25T06:27:21.008Z,7.60
2022-07-25T06:29:53.330Z,6.87
2022-07-25T06:32:22.138Z,7.50
2022-07-25T06:34:55.818Z,6.53
2022-07-25T06:37:24.866Z,5.70
2022-07-25T06:39:52.996Z,7.30
2022-07-25T06:42:23.232Z,6.60
2022-07-25T06:44:51.485Z,5.83
2022-07-25T06:47:19.942Z,6.07
2022-07-25T06:49:48.395Z,5.27
2022-07-25T06:52:18.153Z,5.93
2022-07-25T06:54:46.128Z,5.67
2022-07-25T06:57:15.048Z,5.37
2022-07-25T06:59:48.256Z,5.20
2022-07-25T07:02:17.059Z,4.80
2022-07-25T07:04:45.203Z,5.60
2022-07-25T07:07:13.720Z,5.17
2022-07-25T07:09:43.310Z,5.20
2022-07-25T07:12:11.870Z,5.00
2022-07-25T07:14:41.541Z,5.73
2022-07-25T07:17:09.574Z,4.50
2022-07-25T07:19:43.869Z,4.90
2022-07-25T07:22:11.885Z,4.72
2022-07-25T07:24:43.903Z,5.27
2022-07-25T07:27:12.397Z,5.20
2022-07-25T07:29:40.398Z,5.10
2022-07-25T07:32:09.067Z,4.60
2022-07-25T07:34:37.144Z,5.10
2022-07-25T07:37:05.214Z,5.67
2022-07-25T07:39:33.244Z,4.77
2022-07-25T07:42:03.098Z,4.00
2022-07-25T07:48:12.655Z,4.32
2022-07-25T07:50:41.153Z,4.45
2022-07-25T07:53:09.593Z,4.15
2022-07-25T07:55:45.506Z,3.83
2022-07-25T07:58:17.873Z,4.20
2022-07-25T08:00:47.680Z,4.68
2022-07-25T08:03:21.035Z,3.72
2022-07-25T08:05:51.842Z,4.70
2022-07-25T08:08:20.861Z,4.10
2022-07-25T08:10:50.063Z,4.35
2022-07-25T08:13:21.711Z,3.28
2022-07-25T08:19:30.769Z,3.72
2022-07-25T08:21:58.862Z,3.65
2022-07-25T08:24:26.850Z,3.90
2022-07-25T08:26:54.971Z,3.63
2022-07-25T08:29:28.264Z,4.00
2022-07-25T08:31:56.416Z,3.60
2022-07-25T08:34:24.622Z,3.40
2022-07-25T08:36:52.641Z,3.63
2022-07-25T08:39:21.099Z,4.90
2022-07-25T08:41:49.556Z,3.83
2022-07-25T08:44:21.886Z,3.85
2022-07-25T08:46:51.611Z,3.83
2022-07-25T08:49:20.292Z,4.30
2022-07-25T08:51:51.088Z,4.30
2022-07-25T08:54:20.400Z,4.00
2022-07-25T08:56:51.111Z,4.63
2022-07-25T08:59:19.573Z,4.90
2022-07-25T09:01:47.808Z,4.20
2022-07-25T09:04:18.481Z,4.23
2022-07-25T09:06:51.723Z,4.50
2022-07-25T09:09:20.634Z,4.93
2022-07-25T09:11:50.040Z,4.60
2022-07-25T09:14:18.550Z,5.37
2022-07-25T09:16:46.707Z,5.10
2022-07-25T09:19:19.935Z,4.90
2022-07-25T09:22:00.152Z,5.13
2022-07-25T09:24:29.043Z,4.30
2022-07-25T09:26:59.745Z,4.87
2022-07-25T09:29:30.133Z,4.97
2022-07-25T09:31:59.674Z,4.13
2022-07-25T09:34:35.172Z,5.10
2022-07-25T09:37:04.994Z,4.93
2022-07-25T09:39:45.880Z,4.80
2022-07-25T09:42:20.130Z,5.03
2022-07-25T09:45:15.414Z,5.50
2022-07-25T09:47:56.804Z,4.93
2022-07-25T09:50:30.829Z,3.80
2022-07-25T09:53:00.816Z,4.30
2022-07-25T09:55:29.826Z,4.00
2022-07-25T09:57:58.157Z,4.93
2022-07-25T10:00:28.509Z,4.57
2022-07-25T10:03:19.726Z,4.10
2022-07-25T10:06:10.083Z,4.45
2022-07-25T10:08:39.190Z,4.50
2022-07-25T10:11:09.639Z,4.75
2022-07-25T10:13:39.247Z,4.13
2022-07-25T10:16:17.351Z,3.70
2022-07-25T10:18:53.195Z,4.18
2022-07-25T10:21:27.696Z,3.60
2022-07-25T10:24:01.756Z,3.38
2022-07-25T10:26:31.200Z,3.92
2022-07-25T10:29:00.036Z,3.60
2022-07-25T10:31:36.606Z,4.03
2022-07-25T10:34:07.034Z,3.63
2022-07-25T10:36:48.486Z,4.43
2022-07-25T10:39:19.614Z,4.00
2022-07-25T10:41:54.078Z,3.95
2022-07-25T10:44:22.974Z,3.83
2022-07-25T10:46:51.105Z,3.65
2022-07-25T10:49:29.139Z,3.97
2022-07-25T10:52:04.421Z,4.00
2022-07-25T10:54:36.740Z,4.18
2022-07-25T10:57:07.362Z,4.10
2022-07-25T10:59:36.769Z,4.18
2022-07-25T11:02:07.290Z,4.20
2022-07-25T11:04:35.723Z,4.50
2022-07-25T11:07:12.856Z,3.55
2022-07-25T11:09:42.322Z,4.07
2022-07-25T11:12:15.602Z,4.05
2022-07-25T11:14:44.694Z,3.95
2022-07-25T11:17:15.861Z,4.00
2022-07-25T11:19:45.558Z,3.83
2022-07-25T11:22:17.981Z,4.57
2022-07-25T11:24:47.730Z,4.77
2022-07-25T11:27:23.652Z,4.97
2022-07-25T11:29:51.822Z,5.13
2022-07-25T11:32:20.879Z,4.90
2022-07-25T11:34:50.407Z,5.20
2022-07-25T11:37:21.203Z,4.97
2022-07-25T11:39:49.829Z,4.27
2022-07-25T11:42:20.688Z,4.37
2022-07-25T11:44:50.705Z,4.13
2022-07-25T11:47:28.105Z,4.70
2022-07-25T11:49:57.919Z,4.03
2022-07-25T11:52:31.549Z,4.57
2022-07-25T11:55:01.221Z,4.60
2022-07-25T11:57:31.155Z,4.80
2022-07-25T12:00:00.398Z,5.20
2022-07-25T12:02:32.598Z,4.87
2022-07-25T12:05:02.676Z,5.40
2022-07-25T12:07:46.905Z,5.77
2022-07-25T12:10:18.063Z,5.33
2022-07-25T12:12:49.069Z,4.80
2022-07-25T12:15:22.095Z,4.30
2022-07-25T12:17:51.431Z,4.80
2022-07-25T12:20:21.424Z,4.50
2022-07-25T12:22:53.543Z,4.80
2022-07-25T12:25:23.633Z,5.20
2022-07-25T12:27:53.966Z,5.77
2022-07-25T12:30:22.015Z,5.23
2022-07-25T12:32:50.786Z,5.60
2022-07-25T12:35:18.945Z,5.43
2022-07-25T12:37:47.940Z,5.83
2022-07-25T12:40:17.836Z,5.90
2022-07-25T12:42:47.237Z,5.27
2022-07-25T12:45:15.714Z,5.33
2022-07-25T12:47:46.151Z,5.50
2022-07-25T12:50:15.149Z,5.90
2022-07-25T12:52:44.230Z,5.33
2022-07-25T12:55:14.104Z,5.30
2022-07-25T12:57:44.428Z,5.00
2022-07-25T13:00:16.064Z,5.50
2022-07-25T13:02:45.349Z,4.90
2022-07-25T13:05:13.473Z,6.07
2022-07-25T13:07:42.082Z,5.97
2022-07-25T13:10:10.538Z,5.90
2022-07-25T13:12:39.082Z,5.57
2022-07-25T13:15:09.707Z,5.50
2022-07-25T13:17:38.392Z,5.73
2022-07-25T13:20:07.389Z,6.23
2022-07-25T13:22:36.015Z,6.40
2022-07-25T13:25:04.650Z,5.77
2022-07-25T13:27:32.742Z,6.03
2022-07-25T13:30:01.323Z,5.23
2022-07-25T13:32:31.919Z,6.13
2022-07-25T13:35:00.023Z,6.30
2022-07-25T13:37:28.310Z,6.50
2022-07-25T13:39:56.545Z,6.90
2022-07-25T13:42:24.852Z,6.00
2022-07-25T13:44:53.609Z,6.60
2022-07-25T13:47:26.904Z,5.70
2022-07-25T13:50:00.404Z,6.33
2022-07-25T13:52:28.490Z,6.30
2022-07-25T13:54:57.170Z,6.37
2022-07-25T13:57:25.343Z,5.70
2022-07-25T13:59:53.529Z,5.70
2022-07-25T14:02:22.219Z,6.80
2022-07-25T14:04:50.285Z,6.13
2022-07-25T14:07:19.867Z,5.40
2022-07-25T14:09:48.550Z,6.27
2022-07-25T14:12:16.667Z,6.00
2022-07-25T14:14:45.163Z,6.13
2022-07-25T14:17:13.522Z,6.30
2022-07-25T14:19:41.811Z,6.47
2022-07-25T14:22:10.404Z,6.63
2022-07-25T14:24:39.958Z,5.70
2022-07-25T14:27:08.011Z,6.40
2022-07-25T14:29:38.441Z,6.63
2022-07-25T14:32:07.910Z,6.00
2022-07-25T14:34:36.293Z,5.90
2022-07-25T14:37:06.460Z,5.33
2022-07-25T14:39:36.397Z,4.90
2022-07-25T14:42:06.770Z,5.30
2022-07-25T14:44:34.798Z,5.23
2022-07-25T14:47:09.015Z,5.17
2022-07-25T14:49:41.948Z,4.70
2022-07-25T14:52:10.098Z,4.10
2022-07-25T14:54:38.189Z,4.57
2022-07-25T14:57:09.223Z,4.50
2022-07-25T14:59:37.742Z,3.97
2022-07-25T15:02:06.309Z,4.17
2022-07-25T15:04:34.658Z,4.83
2022-07-25T15:07:02.809Z,4.30
2022-07-25T15:09:31.371Z,4.00
2022-07-25T15:11:59.464Z,4.30
2022-07-25T15:14:29.945Z,3.63
2022-07-25T15:16:58.282Z,3.30
2022-07-25T15:19:26.636Z,3.17
2022-07-25T15:21:55.272Z,3.50
2022-07-25T15:24:28.664Z,3.83
2022-07-25T15:26:57.640Z,3.23
2022-07-25T15:29:25.678Z,3.97
2022-07-25T15:31:55.221Z,5.00
2022-07-25T15:34:23.473Z,4.93
2022-07-25T15:36:52.260Z,3.27
2022-07-25T15:39:20.538Z,3.17
2022-07-25T15:41:49.140Z,3.30
2022-07-25T15:44:17.276Z,3.63
2022-07-25T15:46:46.519Z,4.07
2022-07-25T15:49:17.848Z,4.10
2022-07-25T15:55:32.957Z,4.40
2022-07-25T15:58:49.047Z,4.57
2022-07-25T16:05:06.658Z,4.40
2022-07-25T16:07:34.974Z,4.20
2022-07-25T16:10:03.024Z,4.77
2022-07-25T16:12:31.045Z,4.10
2022-07-25T16:14:59.030Z,3.77
2022-07-25T16:17:28.830Z,4.37
2022-07-25T16:19:57.051Z,4.60
2022-07-25T16:22:27.095Z,4.27
2022-07-25T16:24:55.082Z,4.77
2022-07-25T16:27:23.510Z,4.33
2022-07-25T16:29:53.049Z,4.90
2022-07-25T16:32:21.187Z,4.67
2022-07-25T16:34:49.452Z,4.80
2022-07-25T16:37:17.861Z,5.07
2022-07-25T16:39:47.293Z,4.80
2022-07-25T16:42:19.541Z,5.30
2022-07-25T16:44:48.688Z,5.40
2022-07-25T16:47:17.086Z,5.53
2022-07-25T16:49:45.169Z,4.37
2022-07-25T16:52:14.312Z,5.00
2022-07-25T16:54:42.528Z,5.13
2022-07-25T16:57:11.925Z,5.20
2022-07-25T16:59:40.273Z,4.47
2022-07-25T17:02:08.801Z,4.70
2022-07-25T17:04:37.680Z,5.40
2022-07-25T17:07:05.856Z,5.00
2022-07-25T17:09:33.859Z,4.57
2022-07-25T17:12:02.682Z,5.30
2022-07-25T17:14:32.390Z,5.40
2022-07-25T17:17:00.840Z,5.27
2022-07-25T17:19:33.839Z,5.10
2022-07-25T17:22:02.308Z,5.13
2022-07-25T17:24:30.304Z,6.30
2022-07-25T17:26:58.766Z,6.97
2022-07-25T17:29:27.443Z,5.70
2022-07-25T17:31:56.928Z,6.73
2022-07-25T17:34:26.703Z,5.70
2022-07-25T17:36:54.901Z,5.30
2022-07-25T17:39:23.023Z,6.50
2022-07-25T17:41:53.799Z,5.60
2022-07-25T17:44:21.792Z,5.10
2022-07-25T17:46:50.899Z,5.53
2022-07-25T17:49:21.709Z,5.40
2022-07-25T17:51:50.489Z,5.17
2022-07-25T17:54:18.560Z,5.20
2022-07-25T17:56:47.277Z,5.20
2022-07-25T17:59:15.824Z,5.37
2022-07-25T18:01:43.978Z,5.83
2022-07-25T18:04:12.409Z,6.30
2022-07-25T18:06:41.889Z,5.20
2022-07-25T18:09:10.524Z,5.70
2022-07-25T18:11:38.535Z,5.63
2022-07-25T18:14:07.077Z,5.70
2022-07-25T18:16:35.336Z,5.67
2022-07-25T18:19:03.442Z,5.70
2022-07-25T18:21:31.411Z,5.67
2022-07-25T18:24:01.261Z,5.53
2022-07-25T18:26:29.516Z,6.30
2022-07-25T18:28:57.988Z,6.00
2022-07-25T18:31:25.979Z,6.77
2022-07-25T18:33:54.520Z,6.00
2022-07-25T18:36:22.581Z,6.00
2022-07-25T18:38:54.214Z,6.13
2022-07-25T18:41:29.732Z,5.83
2022-07-25T18:43:58.765Z,6.30
2022-07-25T18:46:30.143Z,6.67
2022-07-25T18:49:00.094Z,6.70
2022-07-25T18:51:28.196Z,6.67
2022-07-25T18:53:56.728Z,6.33
2022-07-25T18:56:26.146Z,6.50
2022-07-25T18:58:54.690Z,6.50
2022-07-25T19:01:22.735Z,6.57
2022-07-25T19:03:51.266Z,7.40
2022-07-25T19:06:19.307Z,6.00
2022-07-25T19:08:48.386Z,6.90
2022-07-25T19:11:16.400Z,7.37
2022-07-25T19:13:50.694Z,6.80
2022-07-25T19:16:20.055Z,8.23
2022-07-25T19:18:48.286Z,8.90
2022-07-25T19:21:16.860Z,9.10
2022-07-25T19:23:50.557Z,11.70
2022-07-25T19:26:19.708Z,12.10
2022-07-25T19:28:50.194Z,13.20
2022-07-25T19:31:18.512Z,12.10
2022-07-25T19:33:47.340Z,12.87
2022-07-25T19:36:15.413Z,13.50
2022-07-25T19:38:43.894Z,13.00
2022-07-25T19:41:12.175Z,13.30
2022-07-25T19:43:40.628Z,12.53
2022-07-25T19:46:10.184Z,11.80
2022-07-25T19:48:38.691Z,14.30
2022-07-25T19:51:07.025Z,14.00
2022-07-25T19:53:35.643Z,13.37
2022-07-25T19:56:03.763Z,12.23
2022-07-25T19:58:35.404Z,13.60
2022-07-25T20:01:06.661Z,14.07
2022-07-25T20:03:36.249Z,14.37
2022-07-25T20:06:08.343Z,14.90
2022-07-25T20:08:36.934Z,14.00
2022-07-25T20:11:05.491Z,14.57
2022-07-25T20:13:33.520Z,14.77
2022-07-25T20:16:02.613Z,15.40
2022-07-25T20:18:30.849Z,14.43
2022-07-25T20:21:00.697Z,13.97
2022-07-25T20:23:28.861Z,13.60
2022-07-25T20:25:57.326Z,12.67
2022-07-25T20:28:25.675Z,12.60
2022-07-25T20:30:56.259Z,13.33
2022-07-25T20:33:27.155Z,13.50
2022-07-25T20:35:56.071Z,13.50
2022-07-25T20:38:28.837Z,12.70
2022-07-25T20:40:57.359Z,14.10
2022-07-25T20:43:25.862Z,12.10
2022-07-25T20:45:55.253Z,12.20
2022-07-25T20:48:23.702Z,14.87
2022-07-25T20:50:51.851Z,13.63
2022-07-25T20:53:20.175Z,13.20
2022-07-25T20:55:49.591Z,12.63
2022-07-25T20:58:18.138Z,14.10
2022-07-25T21:00:47.121Z,12.13
2022-07-25T21:03:17.065Z,13.37
2022-07-25T21:05:45.125Z,14.00
2022-07-25T21:08:13.521Z,13.27
2022-07-25T21:10:41.571Z,15.97
2022-07-25T21:13:10.989Z,14.33
2022-07-25T21:15:38.965Z,13.90
2022-07-25T21:18:07.233Z,15.50
2022-07-25T21:20:37.310Z,13.47
2022-07-25T21:23:06.578Z,12.60
2022-07-25T21:25:34.600Z,13.97
2022-07-25T21:28:03.076Z,14.00
2022-07-25T21:30:32.572Z,12.43
2022-07-25T21:33:00.969Z,14.67
2022-07-25T21:35:29.167Z,14.13
2022-07-25T21:37:59.077Z,14.50
2022-07-25T21:40:27.235Z,13.50
2022-07-25T21:42:55.962Z,12.83
2022-07-25T21:45:24.409Z,13.03
2022-07-25T21:47:54.331Z,13.00
2022-07-25T21:50:43.797Z,13.40
2022-07-25T21:53:14.018Z,11.80
2022-07-25T21:55:42.122Z,13.03
2022-07-25T21:58:10.683Z,10.97
2022-07-25T22:00:45.190Z,10.67
2022-07-25T22:03:15.490Z,11.00
2022-07-25T22:05:43.527Z,11.97
2022-07-25T22:08:11.970Z,11.27
2022-07-25T22:10:40.041Z,10.90
2022-07-25T22:13:13.033Z,10.30
2022-07-25T22:15:41.195Z,12.60
2022-07-25T22:18:09.786Z,10.77
2022-07-25T22:20:39.625Z,11.47
2022-07-25T22:23:08.430Z,11.87
2022-07-25T22:25:36.901Z,10.93
2022-07-25T22:28:05.030Z,10.87
2022-07-25T22:30:35.202Z,12.20
2022-07-25T22:33:03.284Z,11.10
2022-07-25T22:35:31.955Z,11.40
2022-07-25T22:38:01.365Z,11.43
2022-07-25T22:40:29.848Z,11.60
2022-07-25T22:42:58.058Z,11.60
2022-07-25T22:45:26.588Z,11.93
2022-07-25T22:47:54.663Z,12.13
2022-07-25T22:50:23.401Z,11.03
2022-07-25T22:52:51.425Z,12.50
2022-07-25T22:55:21.261Z,12.50
2022-07-25T22:57:49.729Z,12.20
2022-07-25T23:00:18.671Z,12.27
2022-07-25T23:02:46.729Z,12.40
2022-07-25T23:05:16.535Z,12.13
2022-07-25T23:07:44.563Z,11.00
2022-07-25T23:10:12.961Z,11.43
2022-07-25T23:12:42.345Z,9.80
2022-07-25T23:15:11.158Z,9.93
2022-07-25T23:17:39.181Z,10.03
2022-07-25T23:20:08.456Z,10.10
2022-07-25T23:22:37.037Z,9.50
2022-07-25T23:25:05.587Z,11.63
2022-07-25T23:27:35.021Z,9.70
2022-07-25T23:30:05.989Z,9.57
2022-07-25T23:32:34.753Z,10.20
2022-07-25T23:35:03.298Z,10.70
2022-07-25T23:37:31.299Z,10.20
2022-07-25T23:40:00.105Z,9.70
2022-07-25T23:42:28.349Z,9.73
2022-07-25T23:44:56.711Z,9.53
2022-07-25T23:47:40.574Z,9.87
2022-07-25T23:50:11.154Z,9.23
2022-07-25T23:52:39.187Z,9.77
2022-07-25T23:55:08.015Z,10.23
2022-07-25T23:57:35.990Z,9.50
